Time;durP1;ratioP1;P1;durP2;ratioP2;P2;SDS_P1;SDS_P2;PMS_P1;PMS_P2;Temp;Humidity;BMP_temperature;BMP_pressure;BME280_temperature;BME280_humidity;BME280_pressure;Samples;Min_cycle;Max_cycle;Signal;HPM_P1;HPM_P2
2022/05/11 00:01:53;;;;;;;7.57;3.47;;;12.40;99.90;;;;;;5011257;28;20767;-54
2022/05/11 00:04:19;;;;;;;7.32;4.13;;;12.40;99.90;;;;;;5010853;28;20040;-53
2022/05/11 00:06:45;;;;;;;6.82;3.60;;;12.30;99.90;;;;;;5011210;28;20085;-52
2022/05/11 00:09:13;;;;;;;7.20;3.33;;;12.40;99.90;;;;;;5010498;28;20081;-51
2022/05/11 00:11:40;;;;;;;7.13;3.83;;;12.40;99.90;;;;;;5010797;28;20756;-50
2022/05/11 00:14:07;;;;;;;8.18;3.40;;;12.40;99.90;;;;;;5010756;28;20050;-53
2022/05/11 00:16:34;;;;;;;8.80;3.83;;;12.60;99.90;;;;;;5010887;28;20050;-50
2022/05/11 00:19:00;;;;;;;6.50;3.72;;;12.30;99.90;;;;;;5010726;28;20494;-53
2022/05/11 00:21:26;;;;;;;10.70;4.72;;;12.40;99.90;;;;;;5010560;28;20045;-51
2022/05/11 00:23:53;;;;;;;8.45;3.60;;;12.40;99.90;;;;;;5009208;28;20112;-53
2022/05/11 00:26:19;;;;;;;5.95;3.38;;;12.40;99.90;;;;;;5010158;28;20046;-50
2022/05/11 00:28:44;;;;;;;6.03;3.55;;;12.40;99.90;;;;;;5010075;28;20052;-52
2022/05/11 00:31:10;;;;;;;7.13;3.65;;;12.40;99.90;;;;;;5010188;28;20084;-52
2022/05/11 00:33:36;;;;;;;8.15;3.40;;;12.60;99.90;;;;;;5010100;28;20536;-51
2022/05/11 00:36:02;;;;;;;6.07;3.25;;;12.40;99.90;;;;;;5009945;28;20069;-51
2022/05/11 00:38:29;;;;;;;9.02;3.67;;;12.40;99.90;;;;;;5018330;28;20053;-53
2022/05/11 00:40:59;;;;;;;7.15;3.33;;;12.30;99.90;;;;;;5029763;28;20041;-49
2022/05/11 00:43:33;;;;;;;7.72;3.55;;;12.40;99.90;;;;;;5029629;28;20049;-53
2022/05/11 00:46:22;;;;;;;4.88;3.10;;;12.40;99.90;;;;;;5029650;28;20038;-53
2022/05/11 00:51:43;;;;;;;7.28;3.83;;;12.30;99.90;;;;;;5029958;28;20056;-52
2022/05/11 00:54:11;;;;;;;5.75;3.13;;;12.30;99.90;;;;;;5029587;28;20041;-52
2022/05/11 00:56:41;;;;;;;6.40;3.75;;;12.30;99.90;;;;;;5029796;28;20049;-53
2022/05/11 00:59:19;;;;;;;7.72;3.38;;;12.40;99.90;;;;;;5029484;28;20133;-52
2022/05/11 01:01:45;;;;;;;7.60;3.40;;;12.20;99.90;;;;;;5028814;28;20045;-52
2022/05/11 01:04:17;;;;;;;6.60;3.30;;;12.70;99.90;;;;;;5029137;28;20048;-52
2022/05/11 01:06:43;;;;;;;4.57;2.97;;;12.30;99.90;;;;;;5028253;28;20053;-53
2022/05/11 01:09:10;;;;;;;7.50;3.08;;;12.40;99.90;;;;;;5028908;28;20420;-51
2022/05/11 01:11:39;;;;;;;6.32;3.08;;;12.10;99.90;;;;;;5029357;28;20049;-50
2022/05/11 01:14:07;;;;;;;6.40;3.25;;;12.40;99.90;;;;;;5029377;28;20056;-54
2022/05/11 01:16:35;;;;;;;5.45;3.15;;;12.30;99.90;;;;;;5029020;28;20053;-52
2022/05/11 01:19:03;;;;;;;9.27;3.45;;;12.20;99.90;;;;;;5029265;28;20045;-53
2022/05/11 01:21:45;;;;;;;7.38;3.25;;;12.30;99.90;;;;;;5028976;28;20046;-52
2022/05/11 01:24:27;;;;;;;4.60;2.83;;;12.30;99.90;;;;;;5029086;28;20033;-51
2022/05/11 01:26:54;;;;;;;9.23;3.25;;;12.30;99.90;;;;;;5029107;28;20045;-53
2022/05/11 01:29:20;;;;;;;8.52;3.88;;;12.90;99.90;;;;;;5028814;28;20431;-52
2022/05/11 01:31:46;;;;;;;5.65;3.20;;;12.20;99.90;;;;;;5029352;28;20060;-54
2022/05/11 01:34:17;;;;;;;6.15;2.92;;;12.30;99.90;;;;;;5029497;28;20182;-53
2022/05/11 01:36:46;;;;;;;6.75;3.35;;;12.30;99.90;;;;;;5028667;28;20447;-52
2022/05/11 01:39:11;;;;;;;7.20;4.28;;;12.30;99.90;;;;;;5019357;28;20518;-52
2022/05/11 01:41:43;;;;;;;5.60;3.60;;;12.70;99.90;;;;;;5027944;28;20045;-54
2022/05/11 01:44:13;;;;;;;9.20;3.60;;;12.80;99.90;;;;;;5029164;28;20052;-54
2022/05/11 01:46:43;;;;;;;10.30;3.83;;;12.30;99.90;;;;;;5027491;28;20048;-53
2022/05/11 01:49:09;;;;;;;8.18;3.38;;;12.30;99.90;;;;;;5028615;28;20057;-53
2022/05/11 01:51:34;;;;;;;5.80;3.38;;;12.30;99.90;;;;;;5028674;28;20053;-53
2022/05/11 01:54:00;;;;;;;5.97;3.47;;;12.20;99.90;;;;;;5028958;28;20103;-52
2022/05/11 01:56:26;;;;;;;5.93;3.05;;;12.50;99.90;;;;;;5028267;28;20041;-53
2022/05/11 01:58:53;;;;;;;7.28;4.15;;;12.30;99.90;;;;;;5028718;28;20124;-50
2022/05/11 02:01:23;;;;;;;8.75;3.80;;;12.30;99.90;;;;;;5028366;28;20048;-53
2022/05/11 02:03:49;;;;;;;7.38;4.43;;;12.20;99.90;;;;;;5028852;28;20045;-54
2022/05/11 02:09:00;;;;;;;7.60;4.70;;;12.20;99.90;;;;;;5028717;28;20060;-54
2022/05/11 02:11:26;;;;;;;10.02;4.50;;;12.30;99.90;;;;;;5028702;28;20162;-54
2022/05/11 02:13:53;;;;;;;6.45;3.70;;;12.20;99.90;;;;;;5030658;28;20152;-54
2022/05/11 02:16:19;;;;;;;5.78;3.75;;;13.00;99.90;;;;;;5032497;28;20045;-51
2022/05/11 02:18:44;;;;;;;7.72;3.90;;;12.60;99.90;;;;;;5032795;28;20102;-53
2022/05/11 02:21:10;;;;;;;8.55;3.78;;;12.30;99.90;;;;;;5032641;28;20098;-53
2022/05/11 02:23:37;;;;;;;9.82;3.78;;;12.30;99.90;;;;;;5030874;28;20056;-53
2022/05/11 02:26:04;;;;;;;7.25;4.07;;;12.30;99.90;;;;;;5032469;28;20527;-52
2022/05/11 02:28:30;;;;;;;5.55;3.13;;;12.30;99.90;;;;;;5031915;28;20409;-52
2022/05/11 02:30:57;;;;;;;9.23;3.88;;;12.30;99.90;;;;;;5030747;28;20054;-54
2022/05/11 02:33:24;;;;;;;8.30;4.00;;;12.30;99.90;;;;;;5031990;28;20041;-53
2022/05/11 02:35:51;;;;;;;9.85;4.00;;;12.30;99.90;;;;;;5032214;28;20052;-53
2022/05/11 02:38:19;;;;;;;7.88;4.22;;;12.30;99.90;;;;;;5017486;28;20481;-53
2022/05/11 02:40:47;;;;;;;8.57;3.90;;;12.30;99.90;;;;;;5030724;28;20057;-54
2022/05/11 02:43:14;;;;;;;9.35;4.20;;;12.40;99.90;;;;;;5031873;28;20045;-54
2022/05/11 02:45:41;;;;;;;7.85;3.80;;;12.60;99.90;;;;;;5032024;28;20046;-52
2022/05/11 02:48:09;;;;;;;8.50;3.90;;;12.00;99.90;;;;;;5032203;28;20401;-54
2022/05/11 02:50:40;;;;;;;8.77;3.55;;;12.30;99.90;;;;;;5032106;28;20052;-53
2022/05/11 02:53:11;;;;;;;6.67;4.37;;;12.30;99.90;;;;;;5032544;28;20150;-52
2022/05/11 02:55:46;;;;;;;10.00;4.05;;;13.10;99.90;;;;;;5032011;28;20049;-55
2022/05/11 02:58:13;;;;;;;7.20;4.35;;;12.40;99.90;;;;;;5032485;28;20037;-51
2022/05/11 03:00:43;;;;;;;10.05;4.53;;;12.40;99.90;;;;;;5030678;28;20056;-53
2022/05/11 03:03:11;;;;;;;7.72;3.90;;;12.30;99.90;;;;;;5032609;28;20034;-52
2022/05/11 03:05:37;;;;;;;8.35;4.10;;;12.40;99.90;;;;;;5031698;28;20138;-53
2022/05/11 03:08:03;;;;;;;8.52;4.75;;;12.40;99.90;;;;;;5030475;28;20045;-52
2022/05/11 03:10:29;;;;;;;9.77;4.55;;;12.40;99.90;;;;;;5031466;28;20084;-53
2022/05/11 03:12:55;;;;;;;9.70;4.30;;;13.10;99.90;;;;;;5031694;28;20131;-52
2022/05/11 03:15:21;;;;;;;9.43;4.50;;;12.40;99.90;;;;;;5031448;28;20099;-52
2022/05/11 03:17:47;;;;;;;6.90;4.70;;;12.40;99.90;;;;;;5031435;28;20042;-54
2022/05/11 03:20:13;;;;;;;8.55;4.53;;;12.40;99.90;;;;;;5031365;28;20046;-53
2022/05/11 03:22:38;;;;;;;11.48;4.90;;;12.40;99.90;;;;;;5031090;28;20039;-54
2022/05/11 03:25:05;;;;;;;8.45;4.30;;;12.40;99.90;;;;;;5030605;28;20053;-52
2022/05/11 03:27:31;;;;;;;8.73;4.13;;;12.40;99.90;;;;;;5031087;28;20053;-52
2022/05/11 03:29:56;;;;;;;7.15;4.00;;;12.40;99.90;;;;;;5031205;28;20041;-53
2022/05/11 03:35:10;;;;;;;7.85;4.00;;;12.90;99.90;;;;;;5031045;28;20060;-53
2022/05/11 03:37:37;;;;;;;8.55;3.60;;;12.50;99.90;;;;;;5022621;28;20116;-53
2022/05/11 03:40:07;;;;;;;7.30;4.10;;;12.50;99.90;;;;;;5009654;28;20050;-53
2022/05/11 03:42:35;;;;;;;11.32;4.75;;;12.50;99.90;;;;;;5011325;28;20050;-54
2022/05/11 03:45:14;;;;;;;6.00;3.58;;;12.40;99.90;;;;;;5010025;28;20054;-53
2022/05/11 03:47:40;;;;;;;6.35;3.53;;;12.60;99.90;;;;;;5011072;28;20049;-53
2022/05/11 03:50:07;;;;;;;8.05;4.18;;;12.60;99.90;;;;;;5010932;28;20058;-52
2022/05/11 03:52:33;;;;;;;7.50;3.72;;;12.60;99.90;;;;;;5009453;28;20819;-53
2022/05/11 03:54:59;;;;;;;6.97;4.13;;;12.60;99.90;;;;;;5010634;28;20056;-52
2022/05/11 03:57:25;;;;;;;9.23;4.35;;;12.60;99.90;;;;;;5010783;28;20042;-54
2022/05/11 03:59:50;;;;;;;8.35;3.75;;;12.50;99.90;;;;;;5010664;28;20049;-53
2022/05/11 04:02:16;;;;;;;6.88;3.63;;;12.60;99.90;;;;;;5010785;28;20049;-52
2022/05/11 04:04:42;;;;;;;7.35;3.83;;;13.30;99.90;;;;;;5010580;28;20048;-53
2022/05/11 04:07:08;;;;;;;5.75;3.80;;;12.60;99.90;;;;;;5010970;28;20038;-51
2022/05/11 04:09:34;;;;;;;7.28;3.50;;;12.70;99.90;;;;;;5010829;28;20064;-54
2022/05/11 04:11:59;;;;;;;10.60;4.43;;;12.70;99.90;;;;;;5010989;28;20116;-52
2022/05/11 04:14:25;;;;;;;8.50;3.47;;;12.80;99.90;;;;;;5011313;28;20042;-53
2022/05/11 04:16:59;;;;;;;5.65;4.13;;;12.70;99.90;;;;;;5010830;28;20629;-54
2022/05/11 04:19:29;;;;;;;10.30;3.88;;;12.60;99.90;;;;;;5011055;28;20086;-53
2022/05/11 04:21:55;;;;;;;7.97;4.43;;;12.70;99.90;;;;;;5010527;28;20045;-53
2022/05/11 04:24:21;;;;;;;7.28;3.72;;;12.80;99.90;;;;;;5010745;28;20038;-54
2022/05/11 04:26:48;;;;;;;9.38;3.63;;;12.80;99.90;;;;;;5008818;28;20056;-49
2022/05/11 04:29:15;;;;;;;8.32;3.83;;;12.80;99.90;;;;;;5010029;28;20056;-53
2022/05/11 04:31:40;;;;;;;9.65;3.92;;;12.70;99.90;;;;;;5009188;28;20038;-50
2022/05/11 04:34:06;;;;;;;9.30;3.78;;;12.80;99.90;;;;;;5010163;28;20388;-53
2022/05/11 04:36:32;;;;;;;9.38;4.57;;;12.90;99.90;;;;;;5008471;28;20050;-54
2022/05/11 04:38:58;;;;;;;10.63;4.10;;;12.90;99.90;;;;;;5007511;28;20474;-53
2022/05/11 04:41:24;;;;;;;7.30;3.90;;;12.90;99.90;;;;;;4991102;28;20050;-54
2022/05/11 04:43:50;;;;;;;10.25;4.30;;;12.90;99.90;;;;;;4989187;28;20493;-53
2022/05/11 04:46:15;;;;;;;8.38;3.30;;;13.10;99.90;;;;;;4989804;28;20042;-54
2022/05/11 04:48:45;;;;;;;9.23;4.00;;;13.00;99.90;;;;;;4990078;28;20037;-53
2022/05/11 04:51:14;;;;;;;8.82;3.83;;;13.00;99.90;;;;;;4990099;28;20049;-53
2022/05/11 04:53:40;;;;;;;12.25;4.40;;;13.00;99.90;;;;;;4989890;28;20046;-52
2022/05/11 04:56:06;;;;;;;12.20;4.93;;;13.00;99.90;;;;;;4990171;28;20042;-54
2022/05/11 04:58:32;;;;;;;10.68;4.07;;;13.00;99.90;;;;;;4990134;28;20092;-52
2022/05/11 05:00:58;;;;;;;13.35;4.60;;;13.10;99.90;;;;;;4989605;28;20058;-53
2022/05/11 05:03:23;;;;;;;8.25;4.20;;;13.10;99.90;;;;;;4990178;28;20049;-50
2022/05/11 05:05:50;;;;;;;8.77;4.15;;;13.10;99.90;;;;;;4987778;28;20046;-54
2022/05/11 05:08:16;;;;;;;13.15;4.90;;;13.10;99.90;;;;;;5004427;28;20042;-54
2022/05/11 05:10:42;;;;;;;9.00;4.38;;;13.20;99.90;;;;;;4989156;28;20552;-52
2022/05/11 05:13:11;;;;;;;7.88;4.60;;;13.20;99.90;;;;;;4989785;28;20050;-53
2022/05/11 05:15:39;;;;;;;9.43;4.50;;;13.30;99.90;;;;;;4989792;28;20046;-53
2022/05/11 05:18:06;;;;;;;10.93;4.25;;;13.40;99.90;;;;;;4988446;28;20125;-52
2022/05/11 05:20:32;;;;;;;7.30;3.97;;;13.40;99.90;;;;;;4989925;28;20078;-53
2022/05/11 05:22:58;;;;;;;11.75;5.07;;;13.50;99.90;;;;;;4989651;28;20042;-53
2022/05/11 05:25:25;;;;;;;9.05;5.22;;;13.40;99.90;;;;;;4990010;28;20530;-53
2022/05/11 05:27:52;;;;;;;10.52;4.07;;;15.50;99.90;;;;;;4989412;28;20109;-53
2022/05/11 05:33:03;;;;;;;8.88;4.18;;;13.80;99.90;;;;;;4989414;28;20148;-52
2022/05/11 05:35:29;;;;;;;11.88;4.55;;;13.90;99.90;;;;;;4989537;28;20089;-50
2022/05/11 05:37:55;;;;;;;13.02;4.15;;;13.90;99.90;;;;;;4998947;28;20054;-52
2022/05/11 05:40:21;;;;;;;8.13;5.10;;;14.00;99.90;;;;;;5008992;28;20556;-54
2022/05/11 05:42:47;;;;;;;8.48;3.90;;;14.10;99.90;;;;;;4990035;28;20514;-54
2022/05/11 05:45:13;;;;;;;9.05;4.38;;;14.20;99.90;;;;;;4989591;28;20046;-54
2022/05/11 05:47:39;;;;;;;8.45;4.10;;;14.10;99.90;;;;;;4989335;28;20061;-53
2022/05/11 05:50:05;;;;;;;7.72;3.53;;;14.20;99.90;;;;;;4989335;28;20667;-53
2022/05/11 05:52:32;;;;;;;9.40;4.47;;;14.30;99.90;;;;;;4989769;28;20049;-54
2022/05/11 05:54:59;;;;;;;10.15;4.13;;;14.30;99.90;;;;;;4989358;28;20114;-53
2022/05/11 05:57:26;;;;;;;11.98;5.22;;;14.30;99.90;;;;;;4989820;28;20050;-53
2022/05/11 05:59:52;;;;;;;9.30;4.22;;;14.40;99.90;;;;;;4989341;28;20128;-54
2022/05/11 06:02:17;;;;;;;8.27;4.68;;;14.70;99.90;;;;;;4989176;28;20101;-54
2022/05/11 06:04:49;;;;;;;11.13;4.35;;;14.70;99.90;;;;;;4989186;28;20052;-53
2022/05/11 06:07:16;;;;;;;8.90;4.13;;;14.70;99.90;;;;;;4989317;28;20034;-54
2022/05/11 06:09:42;;;;;;;13.30;4.57;;;14.70;99.90;;;;;;4989021;28;20034;-54
2022/05/11 06:12:11;;;;;;;14.35;4.97;;;14.90;99.90;;;;;;4987808;28;20058;-54
2022/05/11 06:14:38;;;;;;;8.70;4.28;;;14.90;99.90;;;;;;4989348;28;20038;-54
2022/05/11 06:17:04;;;;;;;8.18;4.80;;;15.10;99.90;;;;;;4987357;28;20046;-52
2022/05/11 06:19:30;;;;;;;9.15;5.20;;;15.10;99.90;;;;;;4988782;28;20081;-54
2022/05/11 06:21:56;;;;;;;12.20;4.40;;;15.20;99.90;;;;;;4988182;28;20446;-55
2022/05/11 06:24:22;;;;;;;7.50;4.60;;;15.20;99.90;;;;;;4995254;28;20453;-52
2022/05/11 06:26:47;;;;;;;8.95;4.88;;;15.40;99.90;;;;;;4997274;28;20038;-55
2022/05/11 06:29:14;;;;;;;12.15;4.75;;;15.50;99.90;;;;;;4998785;28;20794;-54
2022/05/11 06:31:40;;;;;;;6.03;4.25;;;15.40;99.90;;;;;;4997267;28;20052;-53
2022/05/11 06:34:07;;;;;;;10.15;4.20;;;15.60;99.90;;;;;;4998034;28;20042;-53
2022/05/11 06:36:32;;;;;;;8.68;3.85;;;15.90;99.90;;;;;;4998797;28;20390;-53
2022/05/11 06:38:58;;;;;;;11.85;4.80;;;15.80;99.90;;;;;;4996648;28;20050;-55
2022/05/11 06:41:27;;;;;;;10.07;4.20;;;15.90;99.90;;;;;;4997192;28;20433;-52
2022/05/11 06:43:54;;;;;;;10.80;4.35;;;16.10;99.90;;;;;;4997058;28;20046;-55
2022/05/11 06:46:21;;;;;;;11.40;4.05;;;16.40;99.90;;;;;;4997791;28;20045;-54
2022/05/11 06:48:47;;;;;;;7.50;3.92;;;16.50;99.90;;;;;;4998312;28;20096;-55
2022/05/11 06:51:14;;;;;;;9.15;3.67;;;16.70;99.90;;;;;;4996566;28;20046;-53
2022/05/11 06:59:21;;;;;;;8.55;3.38;;;17.40;97.60;;;;;;4999070;28;20038;-54
2022/05/11 07:02:02;;;;;;;7.05;3.13;;;17.30;96.70;;;;;;4999266;28;20793;-54
2022/05/11 07:04:28;;;;;;;8.98;2.60;;;17.20;95.90;;;;;;5000071;28;20069;-54
2022/05/11 07:06:55;;;;;;;6.95;2.00;;;17.20;95.80;;;;;;4997343;28;20136;-54
2022/05/11 07:09:22;;;;;;;9.95;2.97;;;17.10;95.20;;;;;;4992050;28;20081;-55
2022/05/11 07:14:32;;;;;;;8.40;2.40;;;17.10;94.60;;;;;;4996746;28;20555;-54
2022/05/11 07:16:58;;;;;;;6.93;2.05;;;17.10;94.10;;;;;;5005399;28;20089;-54
2022/05/11 07:19:25;;;;;;;7.97;1.92;;;17.20;93.70;;;;;;5000817;28;20474;-55
2022/05/11 07:21:51;;;;;;;8.68;2.03;;;17.40;93.30;;;;;;4997554;28;20048;-53
2022/05/11 07:24:17;;;;;;;5.30;1.80;;;17.80;92.60;;;;;;5006902;28;20576;-55
2022/05/11 07:26:43;;;;;;;6.60;1.98;;;18.20;91.80;;;;;;4993125;28;20124;-59
2022/05/11 07:29:09;;;;;;;7.32;2.47;;;18.50;90.90;;;;;;4998263;28;20049;-54
2022/05/11 07:31:34;;;;;;;11.80;2.55;;;18.80;90.50;;;;;;4996877;28;20060;-55
2022/05/11 07:34:02;;;;;;;8.05;2.30;;;18.90;89.60;;;;;;4982998;28;20034;-54
2022/05/11 07:36:28;;;;;;;6.75;1.98;;;18.90;90.10;;;;;;4996836;28;20046;-56
2022/05/11 07:38:54;;;;;;;8.20;2.90;;;18.80;87.10;;;;;;4993144;28;20050;-57
2022/05/11 07:41:20;;;;;;;5.38;1.70;;;18.70;86.50;;;;;;4995248;28;20842;-57
2022/05/11 07:43:45;;;;;;;8.40;1.90;;;18.80;86.50;;;;;;4998691;28;20042;-55
2022/05/11 07:46:11;;;;;;;9.65;2.33;;;18.70;86.20;;;;;;4995254;28;20056;-57
2022/05/11 07:48:37;;;;;;;6.20;2.05;;;18.80;85.70;;;;;;4997957;28;20485;-53
2022/05/11 07:51:03;;;;;;;8.30;1.70;;;19.30;84.90;;;;;;4998772;28;20049;-58
2022/05/11 07:53:30;;;;;;;11.60;2.65;;;19.90;83.30;;;;;;4999911;28;20560;-59
2022/05/11 08:01:25;;;;;;;8.43;1.67;;;20.00;79.30;;;;;;4996940;28;20481;-56
2022/05/11 08:03:50;;;;;;;5.97;1.67;;;20.00;79.60;;;;;;4998829;28;20037;-57
2022/05/11 08:06:18;;;;;;;7.55;2.80;;;20.20;79.30;;;;;;4997072;28;20049;-54
2022/05/11 08:08:45;;;;;;;6.00;1.88;;;20.00;78.20;;;;;;4997467;28;20045;-54
2022/05/11 08:11:10;;;;;;;6.95;1.73;;;20.00;78.00;;;;;;4998327;28;20045;-49
2022/05/11 08:13:36;;;;;;;6.57;1.35;;;20.30;77.60;;;;;;4996366;28;20445;-54
2022/05/11 08:16:02;;;;;;;5.65;1.40;;;20.70;76.00;;;;;;4997906;28;20041;-52
2022/05/11 08:18:28;;;;;;;5.85;1.10;;;21.90;75.00;;;;;;4997973;28;20477;-56
2022/05/11 08:20:54;;;;;;;7.32;1.77;;;23.50;73.00;;;;;;4997410;28;20045;-53
2022/05/11 08:23:21;;;;;;;5.03;1.35;;;23.90;70.10;;;;;;4997729;28;20030;-55
2022/05/11 08:25:49;;;;;;;7.90;1.23;;;25.30;67.20;;;;;;4995612;28;20042;-56
2022/05/11 08:28:20;;;;;;;7.55;1.25;;;25.40;63.10;;;;;;4997105;28;20104;-58
2022/05/11 08:33:34;;;;;;;7.55;1.08;;;26.60;59.90;;;;;;4994972;28;20076;-58
2022/05/11 08:36:09;;;;;;;5.07;1.00;;;27.30;57.90;;;;;;4996478;28;20175;-57
2022/05/11 08:38:39;;;;;;;9.77;1.98;;;27.30;56.50;;;;;;4996860;28;20073;-45
2022/05/11 08:41:14;;;;;;;6.05;2.03;;;27.20;56.60;;;;;;4996904;28;20049;-57
2022/05/11 08:43:42;;;;;;;9.85;1.10;;;26.80;55.70;;;;;;4998096;28;20064;-56
2022/05/11 08:46:14;;;;;;;6.97;0.98;;;26.60;55.60;;;;;;5001743;28;20176;-58
2022/05/11 08:49:00;;;;;;;7.15;1.13;;;26.80;55.50;;;;;;5000066;28;20042;-57
2022/05/11 08:51:41;;;;;;;6.32;0.90;;;26.90;58.00;;;;;;4998026;28;20038;-57
2022/05/11 08:54:07;;;;;;;5.10;1.30;;;27.00;54.80;;;;;;4997467;28;20615;-56
2022/05/11 08:56:34;;;;;;;8.85;1.02;;;27.20;56.90;;;;;;4996163;28;20053;-54
2022/05/11 08:59:00;;;;;;;6.43;1.27;;;28.20;66.40;;;;;;4997360;28;20144;-55
2022/05/11 09:01:37;;;;;;;6.78;0.73;;;28.60;66.40;;;;;;5015716;28;20121;-56
2022/05/11 09:04:07;;;;;;;8.27;2.45;;;28.40;73.80;;;;;;4997669;28;20029;-52
2022/05/11 09:06:33;;;;;;;10.15;1.33;;;27.90;52.20;;;;;;4999130;28;20030;-53
2022/05/11 09:09:01;;;;;;;4.55;0.75;;;27.00;53.10;;;;;;4995472;28;20049;-54
2022/05/11 09:11:43;;;;;;;5.10;0.80;;;26.30;52.50;;;;;;4995751;28;20489;-49
2022/05/11 09:14:12;;;;;;;5.95;0.75;;;25.80;52.80;;;;;;4989337;28;20194;-60
2022/05/11 09:16:44;;;;;;;5.80;0.90;;;25.10;53.60;;;;;;4991246;28;20049;-60
2022/05/11 09:19:23;;;;;;;5.30;0.70;;;24.90;54.30;;;;;;4997711;28;20117;-60
2022/05/11 09:22:05;;;;;;;6.82;1.08;;;25.20;53.70;;;;;;4998134;28;20037;-59
2022/05/11 09:24:56;;;;;;;7.18;1.40;;;25.20;53.80;;;;;;5010654;28;20050;-58
2022/05/11 09:27:28;;;;;;;5.43;0.80;;;25.60;54.50;;;;;;4996572;28;20520;-60
2022/05/11 09:30:16;;;;;;;5.32;1.33;;;26.80;85.70;;;;;;4995963;28;20499;-59
2022/05/11 09:32:44;;;;;;;6.15;1.10;;;27.80;53.00;;;;;;4997455;28;20054;-60
2022/05/11 09:35:19;;;;;;;5.90;1.00;;;28.60;52.50;;;;;;4998957;28;20472;-61
2022/05/11 09:37:59;;;;;;;6.38;0.65;;;29.30;49.60;;;;;;4994384;28;20058;-49
2022/05/11 09:40:25;;;;;;;8.77;1.23;;;30.10;49.90;;;;;;4995784;28;20037;-45
2022/05/11 09:43:03;;;;;;;6.90;1.55;;;30.70;48.70;;;;;;4995625;28;20477;-47
2022/05/11 09:45:43;;;;;;;6.53;1.10;;;30.70;47.70;;;;;;4995286;28;20042;-51
2022/05/11 09:48:19;;;;;;;6.43;0.88;;;30.30;47.50;;;;;;4995224;28;20052;-49
2022/05/11 09:50:47;;;;;;;8.23;1.23;;;30.50;48.30;;;;;;4993587;28;20044;-55
2022/05/11 09:53:27;;;;;;;5.65;0.75;;;31.10;47.60;;;;;;4994533;28;20041;-45
2022/05/11 09:55:53;;;;;;;9.00;0.60;;;31.70;46.50;;;;;;4996696;28;20056;-48
2022/05/11 09:58:33;;;;;;;10.63;1.40;;;32.20;46.80;;;;;;4996789;28;20038;-49
2022/05/11 10:01:21;;;;;;;11.43;1.35;;;32.40;45.70;;;;;;4994855;28;20130;-40
2022/05/11 10:03:57;;;;;;;10.85;1.63;;;32.40;45.50;;;;;;4995019;28;20422;-41
2022/05/11 10:06:24;;;;;;;4.63;0.50;;;31.40;44.60;;;;;;4997485;28;20030;-50
2022/05/11 10:08:52;;;;;;;6.47;0.50;;;31.00;45.30;;;;;;4996206;28;20108;-44
2022/05/11 10:11:42;;;;;;;5.20;0.65;;;31.10;45.30;;;;;;4995759;28;20033;-44
2022/05/11 10:22:44;;;;;;;6.68;0.80;;;28.30;46.40;;;;;;5000732;28;20060;-51
2022/05/11 10:25:42;;;;;;;9.57;0.80;;;27.00;46.90;;;;;;5008754;28;20038;-48
2022/05/11 10:28:44;;;;;;;4.18;0.85;;;25.70;48.80;;;;;;5006656;28;20460;-49
2022/05/11 10:31:13;;;;;;;3.92;0.77;;;24.40;50.10;;;;;;5007923;28;20401;-47
2022/05/11 10:33:48;;;;;;;2.97;0.40;;;23.50;51.40;;;;;;5008204;28;20141;-47
2022/05/11 10:36:14;;;;;;;4.22;0.52;;;23.50;51.90;;;;;;5012304;28;20041;-48
2022/05/11 10:39:10;;;;;;;4.68;0.77;;;23.80;52.50;;;;;;4994881;28;20084;-50
2022/05/11 10:41:46;;;;;;;7.35;0.73;;;24.80;52.10;;;;;;4992328;28;20418;-50
2022/05/11 10:44:56;;;;;;;3.35;0.30;;;25.90;49.80;;;;;;5002718;28;20104;-46
2022/05/11 10:47:35;;;;;;;5.85;0.85;;;25.60;48.30;;;;;;4995910;28;20052;-48
2022/05/11 10:50:23;;;;;;;4.63;0.40;;;24.90;49.70;;;;;;5010940;28;20050;-51
2022/05/11 10:53:18;;;;;;;2.92;0.45;;;24.30;50.60;;;;;;5011931;28;20048;-48
2022/05/11 10:56:02;;;;;;;3.25;0.38;;;23.50;51.70;;;;;;5012140;28;20045;-48
2022/05/11 10:58:54;;;;;;;5.30;0.32;;;23.00;52.50;;;;;;5011901;28;20152;-48
2022/05/11 11:01:22;;;;;;;4.20;0.55;;;22.60;52.90;;;;;;5011654;28;20053;-48
2022/05/11 11:04:10;;;;;;;5.80;0.30;;;22.40;54.20;;;;;;5010626;28;20461;-48
2022/05/11 11:09:29;;;;;;;2.60;0.30;;;22.00;54.80;;;;;;5011898;28;20096;-49
2022/05/11 11:12:17;;;;;;;5.30;1.05;;;22.00;55.70;;;;;;5011756;28;20042;-49
2022/05/11 11:14:47;;;;;;;5.63;0.63;;;22.10;55.50;;;;;;5011366;28;20103;-51
2022/05/11 11:17:18;;;;;;;3.40;0.55;;;22.10;55.80;;;;;;5011498;28;20057;-51
2022/05/11 11:19:49;;;;;;;6.25;0.80;;;22.10;55.60;;;;;;5012067;28;20045;-46
2022/05/11 11:22:15;;;;;;;7.83;0.83;;;22.00;56.30;;;;;;5011808;28;20037;-47
2022/05/11 11:24:43;;;;;;;5.85;1.23;;;21.70;56.60;;;;;;5011421;28;20041;-50
2022/05/11 11:27:09;;;;;;;5.35;0.50;;;21.40;56.70;;;;;;5011647;28;20470;-50
2022/05/11 11:29:37;;;;;;;4.75;0.50;;;21.30;57.70;;;;;;5011273;28;20033;-48
2022/05/11 11:32:05;;;;;;;6.65;0.65;;;21.30;58.60;;;;;;5011814;28;20041;-49
2022/05/11 11:34:37;;;;;;;7.85;0.98;;;21.40;58.20;;;;;;5011450;28;20104;-52
2022/05/11 11:37:25;;;;;;;4.15;0.50;;;21.60;58.10;;;;;;5010035;28;20085;-53
2022/05/11 11:39:56;;;;;;;5.05;0.43;;;21.60;58.70;;;;;;5011468;28;20060;-49
2022/05/11 11:42:35;;;;;;;6.18;0.52;;;21.80;58.00;;;;;;5011199;28;20632;-47
2022/05/11 11:45:02;;;;;;;4.32;0.35;;;22.00;57.40;;;;;;4997009;28;20038;-47
2022/05/11 11:47:30;;;;;;;4.93;1.10;;;22.00;57.40;;;;;;4990989;28;20072;-49
2022/05/11 11:49:58;;;;;;;10.70;1.67;;;22.00;57.80;;;;;;4991626;28;20049;-50
2022/05/11 11:52:45;;;;;;;7.60;0.93;;;21.90;58.50;;;;;;4991875;28;20049;-50
2022/05/11 11:55:30;;;;;;;5.40;0.55;;;21.80;59.40;;;;;;4991544;28;20042;-49
2022/05/11 11:58:11;;;;;;;7.10;0.50;;;21.90;58.50;;;;;;4991691;28;20031;-48
2022/05/11 12:00:45;;;;;;;5.80;0.60;;;21.90;58.50;;;;;;4991148;28;20117;-47
2022/05/11 12:03:24;;;;;;;9.00;1.40;;;21.90;58.10;;;;;;4990265;28;20042;-49
2022/05/11 12:15:01;;;;;;;3.45;0.50;;;21.90;58.30;;;;;;4990933;28;20057;-51
2022/05/11 12:17:05;;;;;;;3.17;0.43;;;21.40;58.00;;;;;;4989511;28;20050;-53
2022/05/11 12:19:36;;;;;;;4.18;0.88;;;21.30;57.40;;;;;;4990895;28;20034;-51
2022/05/11 12:22:18;;;;;;;6.07;0.85;;;21.30;58.30;;;;;;4991144;28;20042;-46
2022/05/11 12:24:44;;;;;;;;;;;21.20;58.10;;;;;;4991546;28;20121;-48
2022/05/11 12:27:23;;;;;;;5.80;0.60;;;21.20;58.40;;;;;;4991176;28;19922;-52
2022/05/11 12:29:54;;;;;;;4.53;0.60;;;21.30;59.40;;;;;;4991263;28;20049;-50
2022/05/11 12:32:47;;;;;;;7.07;0.60;;;21.40;58.50;;;;;;4989707;28;20058;-47
2022/05/11 12:35:18;;;;;;;4.63;0.63;;;21.50;59.00;;;;;;4991019;28;20084;-47
2022/05/11 12:37:54;;;;;;;5.85;1.33;;;21.50;58.40;;;;;;4999058;28;20501;-47
2022/05/11 12:40:21;;;;;;;6.15;1.05;;;21.50;58.50;;;;;;5010157;28;20608;-52
2022/05/11 12:42:53;;;;;;;4.90;0.57;;;21.60;58.50;;;;;;5009975;28;20038;-50
2022/05/11 12:45:40;;;;;;;5.90;1.13;;;21.70;58.00;;;;;;4997450;28;20054;-48
2022/05/11 12:48:07;;;;;;;5.47;0.50;;;21.70;58.00;;;;;;4990766;28;20050;-48
2022/05/11 12:50:47;;;;;;;8.43;0.80;;;21.70;58.10;;;;;;4990862;28;20157;-51
2022/05/11 12:53:16;;;;;;;4.50;0.73;;;21.60;58.40;;;;;;4989325;28;20061;-50
2022/05/11 12:56:06;;;;;;;8.90;1.02;;;21.70;58.70;;;;;;4990366;28;20046;-49
2022/05/11 12:58:34;;;;;;;7.40;0.63;;;21.50;58.30;;;;;;4981698;28;20125;-52
2022/05/11 13:01:04;;;;;;;4.13;0.50;;;21.50;57.90;;;;;;4990096;28;20125;-52
2022/05/11 13:03:36;;;;;;;8.68;0.70;;;21.30;58.00;;;;;;5005317;28;20140;-53
2022/05/11 13:06:07;;;;;;;6.75;0.55;;;21.40;58.70;;;;;;4989993;28;20054;-53
2022/05/11 13:08:44;;;;;;;7.53;1.30;;;21.40;57.70;;;;;;4990086;28;20077;-53
2022/05/11 13:11:17;;;;;;;3.55;0.40;;;21.30;57.50;;;;;;4989844;28;20588;-47
2022/05/11 13:13:44;;;;;;;4.50;0.73;;;21.30;58.20;;;;;;4989938;28;20042;-49
2022/05/11 13:16:21;;;;;;;5.70;0.45;;;21.30;58.00;;;;;;4989962;28;20050;-49
2022/05/11 13:18:47;;;;;;;5.93;0.75;;;21.30;57.80;;;;;;4990258;28;20042;-51
2022/05/11 13:21:14;;;;;;;5.88;0.70;;;21.20;57.10;;;;;;4989964;28;20133;-50
2022/05/11 13:23:49;;;;;;;9.45;1.05;;;21.00;56.90;;;;;;4989544;28;20038;-48
2022/05/11 13:26:34;;;;;;;3.95;0.68;;;21.00;57.40;;;;;;4987776;28;20054;-52
2022/05/11 13:29:10;;;;;;;7.60;0.85;;;21.20;58.40;;;;;;4989228;28;20054;-48
2022/05/11 13:31:36;;;;;;;9.45;0.68;;;21.10;58.30;;;;;;4988279;28;20046;-50
2022/05/11 13:34:04;;;;;;;6.90;0.75;;;21.10;58.80;;;;;;4989327;28;20105;-49
2022/05/11 13:36:44;;;;;;;9.75;0.60;;;21.30;58.20;;;;;;4989470;28;20051;-51
2022/05/11 13:39:11;;;;;;;8.60;1.55;;;21.40;56.70;;;;;;4989081;28;20058;-47
2022/05/11 13:41:58;;;;;;;10.30;1.13;;;21.50;57.70;;;;;;4989669;28;20046;-47
2022/05/11 13:44:52;;;;;;;9.90;1.20;;;21.50;58.10;;;;;;4989943;28;20132;-49
2022/05/11 13:50:38;;;;;;;7.90;1.13;;;21.50;58.40;;;;;;5008618;28;20835;-51
2022/05/11 13:53:13;;;;;;;7.43;1.10;;;21.50;59.00;;;;;;5008634;28;20038;-47